sensor_id;sensor_type;location;lat;lon;timestamp;P1;durP1;ratioP1;P2;durP2;ratioP2
12469;SDS011;36499;46.484;13.832;2024-01-06T00:02:25;4.07;;;3.20;;
12469;SDS011;36499;46.484;13.832;2024-01-06T00:04:52;5.60;;;3.37;;
12469;SDS011;36499;46.484;13.832;2024-01-06T00:07:19;4.13;;;3.23;;
12469;SDS011;36499;46.484;13.832;2024-01-06T00:09:45;3.77;;;3.20;;
12469;SDS011;36499;46.484;13.832;2024-01-06T00:12:12;6.60;;;3.10;;
12469;SDS011;36499;46.484;13.832;2024-01-06T00:14:40;7.67;;;3.30;;
12469;SDS011;36499;46.484;13.832;2024-01-06T00:17:10;4.73;;;3.23;;
12469;SDS011;36499;46.484;13.832;2024-01-06T00:19:38;3.80;;;2.97;;
12469;SDS011;36499;46.484;13.832;2024-01-06T00:22:05;2.60;;;2.40;;
12469;SDS011;36499;46.484;13.832;2024-01-06T00:24:32;4.37;;;3.10;;
12469;SDS011;36499;46.484;13.832;2024-01-06T00:26:58;3.87;;;2.80;;
12469;SDS011;36499;46.484;13.832;2024-01-06T00:29:25;5.93;;;3.10;;
12469;SDS011;36499;46.484;13.832;2024-01-06T00:31:52;3.93;;;2.90;;
12469;SDS011;36499;46.484;13.832;2024-01-06T00:34:19;3.03;;;2.20;;
12469;SDS011;36499;46.484;13.832;2024-01-06T00:36:47;3.17;;;2.10;;
12469;SDS011;36499;46.484;13.832;2024-01-06T00:39:14;2.60;;;2.03;;
12469;SDS011;36499;46.484;13.832;2024-01-06T00:41:41;2.50;;;2.13;;
12469;SDS011;36499;46.484;13.832;2024-01-06T00:44:08;3.03;;;2.30;;
12469;SDS011;36499;46.484;13.832;2024-01-06T00:46:35;3.87;;;2.13;;
12469;SDS011;36499;46.484;13.832;2024-01-06T00:49:01;2.83;;;1.97;;
12469;SDS011;36499;46.484;13.832;2024-01-06T00:51:29;3.20;;;1.93;;
12469;SDS011;36499;46.484;13.832;2024-01-06T00:53:57;2.43;;;1.90;;
12469;SDS011;36499;46.484;13.832;2024-01-06T00:56:24;4.27;;;1.73;;
12469;SDS011;36499;46.484;13.832;2024-01-06T00:58:52;2.87;;;1.97;;
12469;SDS011;36499;46.484;13.832;2024-01-06T01:01:19;2.97;;;1.90;;
12469;SDS011;36499;46.484;13.832;2024-01-06T01:03:45;2.20;;;1.80;;
12469;SDS011;36499;46.484;13.832;2024-01-06T01:06:12;1.40;;;1.30;;
12469;SDS011;36499;46.484;13.832;2024-01-06T01:08:39;1.60;;;1.27;;
12469;SDS011;36499;46.484;13.832;2024-01-06T01:11:07;2.10;;;1.20;;
12469;SDS011;36499;46.484;13.832;2024-01-06T01:13:34;1.33;;;1.03;;
12469;SDS011;36499;46.484;13.832;2024-01-06T01:16:01;1.20;;;1.10;;
12469;SDS011;36499;46.484;13.832;2024-01-06T01:18:29;1.70;;;1.03;;
12469;SDS011;36499;46.484;13.832;2024-01-06T01:20:56;1.20;;;1.03;;
12469;SDS011;36499;46.484;13.832;2024-01-06T01:23:22;1.67;;;1.10;;
12469;SDS011;36499;46.484;13.832;2024-01-06T01:25:49;1.30;;;1.10;;
12469;SDS011;36499;46.484;13.832;2024-01-06T01:28:17;0.77;;;0.77;;
12469;SDS011;36499;46.484;13.832;2024-01-06T01:30:44;1.17;;;1.03;;
12469;SDS011;36499;46.484;13.832;2024-01-06T01:33:11;1.67;;;1.20;;
12469;SDS011;36499;46.484;13.832;2024-01-06T01:35:38;2.47;;;1.30;;
12469;SDS011;36499;46.484;13.832;2024-01-06T01:38:06;2.03;;;1.10;;
12469;SDS011;36499;46.484;13.832;2024-01-06T01:40:33;0.90;;;0.90;;
12469;SDS011;36499;46.484;13.832;2024-01-06T01:43:00;2.80;;;1.00;;
12469;SDS011;36499;46.484;13.832;2024-01-06T01:45:28;1.87;;;1.00;;
12469;SDS011;36499;46.484;13.832;2024-01-06T01:47:55;1.00;;;0.90;;
12469;SDS011;36499;46.484;13.832;2024-01-06T01:50:22;1.20;;;1.07;;
12469;SDS011;36499;46.484;13.832;2024-01-06T01:52:52;1.17;;;0.97;;
12469;SDS011;36499;46.484;13.832;2024-01-06T01:55:20;3.60;;;1.20;;
12469;SDS011;36499;46.484;13.832;2024-01-06T01:57:47;1.53;;;0.83;;
12469;SDS011;36499;46.484;13.832;2024-01-06T02:00:14;2.10;;;1.03;;
12469;SDS011;36499;46.484;13.832;2024-01-06T02:02:43;0.73;;;0.70;;
12469;SDS011;36499;46.484;13.832;2024-01-06T02:05:09;0.77;;;0.77;;
12469;SDS011;36499;46.484;13.832;2024-01-06T02:07:36;0.60;;;0.60;;
12469;SDS011;36499;46.484;13.832;2024-01-06T02:10:04;1.80;;;0.70;;
12469;SDS011;36499;46.484;13.832;2024-01-06T02:12:31;0.70;;;0.70;;
12469;SDS011;36499;46.484;13.832;2024-01-06T02:14:58;1.10;;;0.90;;
12469;SDS011;36499;46.484;13.832;2024-01-06T02:17:25;0.80;;;0.80;;
12469;SDS011;36499;46.484;13.832;2024-01-06T02:19:53;0.60;;;0.60;;
12469;SDS011;36499;46.484;13.832;2024-01-06T02:22:23;0.93;;;0.60;;
12469;SDS011;36499;46.484;13.832;2024-01-06T02:24:49;0.80;;;0.70;;
12469;SDS011;36499;46.484;13.832;2024-01-06T02:27:16;1.10;;;0.87;;
12469;SDS011;36499;46.484;13.832;2024-01-06T02:29:43;1.17;;;0.60;;
12469;SDS011;36499;46.484;13.832;2024-01-06T02:32:10;5.20;;;0.90;;
12469;SDS011;36499;46.484;13.832;2024-01-06T02:34:37;0.97;;;0.90;;
12469;SDS011;36499;46.484;13.832;2024-01-06T02:37:04;1.03;;;0.90;;
12469;SDS011;36499;46.484;13.832;2024-01-06T02:39:32;1.30;;;0.70;;
12469;SDS011;36499;46.484;13.832;2024-01-06T02:41:59;0.40;;;0.40;;
12469;SDS011;36499;46.484;13.832;2024-01-06T02:44:26;0.50;;;0.50;;
12469;SDS011;36499;46.484;13.832;2024-01-06T02:46:53;0.70;;;0.70;;
12469;SDS011;36499;46.484;13.832;2024-01-06T02:49:20;0.60;;;0.60;;
12469;SDS011;36499;46.484;13.832;2024-01-06T02:51:47;0.60;;;0.60;;
12469;SDS011;36499;46.484;13.832;2024-01-06T02:54:14;0.50;;;0.50;;
12469;SDS011;36499;46.484;13.832;2024-01-06T02:56:42;0.87;;;0.70;;
12469;SDS011;36499;46.484;13.832;2024-01-06T02:59:09;0.60;;;0.60;;
12469;SDS011;36499;46.484;13.832;2024-01-06T03:01:36;0.60;;;0.60;;
12469;SDS011;36499;46.484;13.832;2024-01-06T03:04:02;0.70;;;0.70;;
12469;SDS011;36499;46.484;13.832;2024-01-06T03:06:29;0.90;;;0.87;;
12469;SDS011;36499;46.484;13.832;2024-01-06T03:08:56;0.80;;;0.70;;
12469;SDS011;36499;46.484;13.832;2024-01-06T03:11:23;1.00;;;0.70;;
12469;SDS011;36499;46.484;13.832;2024-01-06T03:13:51;0.80;;;0.80;;
12469;SDS011;36499;46.484;13.832;2024-01-06T03:16:18;1.20;;;1.10;;
12469;SDS011;36499;46.484;13.832;2024-01-06T03:18:45;1.03;;;0.93;;
12469;SDS011;36499;46.484;13.832;2024-01-06T03:21:18;0.60;;;0.60;;
12469;SDS011;36499;46.484;13.832;2024-01-06T03:23:45;0.60;;;0.60;;
12469;SDS011;36499;46.484;13.832;2024-01-06T03:26:12;1.70;;;0.80;;
12469;SDS011;36499;46.484;13.832;2024-01-06T03:28:39;1.93;;;0.90;;
12469;SDS011;36499;46.484;13.832;2024-01-06T03:31:07;1.23;;;1.10;;
12469;SDS011;36499;46.484;13.832;2024-01-06T03:33:34;2.03;;;1.50;;
12469;SDS011;36499;46.484;13.832;2024-01-06T03:36:03;2.97;;;1.87;;
12469;SDS011;36499;46.484;13.832;2024-01-06T03:38:31;0.70;;;0.70;;
12469;SDS011;36499;46.484;13.832;2024-01-06T03:40:57;0.53;;;0.53;;
12469;SDS011;36499;46.484;13.832;2024-01-06T03:43:24;0.40;;;0.40;;
12469;SDS011;36499;46.484;13.832;2024-01-06T03:45:51;0.70;;;0.70;;
12469;SDS011;36499;46.484;13.832;2024-01-06T03:48:19;0.57;;;0.57;;
12469;SDS011;36499;46.484;13.832;2024-01-06T03:50:46;2.40;;;0.60;;
12469;SDS011;36499;46.484;13.832;2024-01-06T03:53:13;0.90;;;0.80;;
12469;SDS011;36499;46.484;13.832;2024-01-06T03:55:40;1.33;;;0.80;;
12469;SDS011;36499;46.484;13.832;2024-01-06T03:58:06;0.47;;;0.40;;
12469;SDS011;36499;46.484;13.832;2024-01-06T04:00:33;0.67;;;0.67;;
12469;SDS011;36499;46.484;13.832;2024-01-06T04:03:01;1.43;;;1.17;;
12469;SDS011;36499;46.484;13.832;2024-01-06T04:05:29;1.03;;;0.50;;
12469;SDS011;36499;46.484;13.832;2024-01-06T04:07:56;0.50;;;0.50;;
12469;SDS011;36499;46.484;13.832;2024-01-06T04:10:22;0.60;;;0.60;;
12469;SDS011;36499;46.484;13.832;2024-01-06T04:12:49;0.40;;;0.40;;
12469;SDS011;36499;46.484;13.832;2024-01-06T04:15:16;0.50;;;0.40;;
12469;SDS011;36499;46.484;13.832;2024-01-06T04:17:44;0.40;;;0.40;;
12469;SDS011;36499;46.484;13.832;2024-01-06T04:20:14;0.67;;;0.40;;
12469;SDS011;36499;46.484;13.832;2024-01-06T04:22:42;0.40;;;0.40;;
12469;SDS011;36499;46.484;13.832;2024-01-06T04:25:09;0.80;;;0.37;;
12469;SDS011;36499;46.484;13.832;2024-01-06T04:27:36;0.50;;;0.37;;
12469;SDS011;36499;46.484;13.832;2024-01-06T04:30:04;0.53;;;0.40;;
12469;SDS011;36499;46.484;13.832;2024-01-06T04:32:31;0.50;;;0.50;;
12469;SDS011;36499;46.484;13.832;2024-01-06T04:34:58;0.40;;;0.40;;
12469;SDS011;36499;46.484;13.832;2024-01-06T04:37:25;0.30;;;0.30;;
12469;SDS011;36499;46.484;13.832;2024-01-06T04:39:53;0.37;;;0.37;;
12469;SDS011;36499;46.484;13.832;2024-01-06T04:42:20;0.40;;;0.40;;
12469;SDS011;36499;46.484;13.832;2024-01-06T04:44:47;1.03;;;0.40;;
12469;SDS011;36499;46.484;13.832;2024-01-06T04:47:14;0.53;;;0.53;;
12469;SDS011;36499;46.484;13.832;2024-01-06T04:49:41;0.93;;;0.40;;
12469;SDS011;36499;46.484;13.832;2024-01-06T04:52:08;0.90;;;0.63;;
12469;SDS011;36499;46.484;13.832;2024-01-06T04:54:34;0.73;;;0.50;;
12469;SDS011;36499;46.484;13.832;2024-01-06T04:57:03;1.83;;;0.73;;
12469;SDS011;36499;46.484;13.832;2024-01-06T04:59:30;1.40;;;1.10;;
12469;SDS011;36499;46.484;13.832;2024-01-06T05:01:57;1.20;;;0.90;;
12469;SDS011;36499;46.484;13.832;2024-01-06T05:04:24;1.20;;;0.70;;
12469;SDS011;36499;46.484;13.832;2024-01-06T05:06:51;0.70;;;0.70;;
12469;SDS011;36499;46.484;13.832;2024-01-06T05:09:18;0.77;;;0.70;;
12469;SDS011;36499;46.484;13.832;2024-01-06T05:11:45;0.63;;;0.63;;
12469;SDS011;36499;46.484;13.832;2024-01-06T05:14:13;0.70;;;0.70;;
12469;SDS011;36499;46.484;13.832;2024-01-06T05:16:40;1.27;;;0.77;;
12469;SDS011;36499;46.484;13.832;2024-01-06T05:19:07;1.03;;;0.70;;
12469;SDS011;36499;46.484;13.832;2024-01-06T05:21:34;0.80;;;0.80;;
12469;SDS011;36499;46.484;13.832;2024-01-06T05:24:01;1.57;;;0.93;;
12469;SDS011;36499;46.484;13.832;2024-01-06T05:26:29;1.23;;;1.00;;
12469;SDS011;36499;46.484;13.832;2024-01-06T05:28:55;2.17;;;1.00;;
12469;SDS011;36499;46.484;13.832;2024-01-06T05:31:24;1.17;;;1.07;;
12469;SDS011;36499;46.484;13.832;2024-01-06T05:33:51;1.43;;;0.90;;
12469;SDS011;36499;46.484;13.832;2024-01-06T05:36:18;1.07;;;0.93;;
12469;SDS011;36499;46.484;13.832;2024-01-06T05:38:46;1.80;;;0.83;;
12469;SDS011;36499;46.484;13.832;2024-01-06T05:41:13;1.00;;;0.90;;
12469;SDS011;36499;46.484;13.832;2024-01-06T05:43:39;1.20;;;1.10;;
12469;SDS011;36499;46.484;13.832;2024-01-06T05:46:07;1.30;;;1.10;;
12469;SDS011;36499;46.484;13.832;2024-01-06T05:48:37;1.67;;;1.10;;
12469;SDS011;36499;46.484;13.832;2024-01-06T05:51:05;1.03;;;0.93;;
12469;SDS011;36499;46.484;13.832;2024-01-06T05:53:32;1.07;;;0.97;;
12469;SDS011;36499;46.484;13.832;2024-01-06T05:55:59;0.90;;;0.83;;
12469;SDS011;36499;46.484;13.832;2024-01-06T05:58:26;0.97;;;0.70;;
12469;SDS011;36499;46.484;13.832;2024-01-06T06:00:53;0.60;;;0.60;;
12469;SDS011;36499;46.484;13.832;2024-01-06T06:03:20;1.00;;;0.83;;
12469;SDS011;36499;46.484;13.832;2024-01-06T06:05:48;1.83;;;0.77;;
12469;SDS011;36499;46.484;13.832;2024-01-06T06:08:15;0.63;;;0.63;;
12469;SDS011;36499;46.484;13.832;2024-01-06T06:10:42;0.63;;;0.63;;
12469;SDS011;36499;46.484;13.832;2024-01-06T06:13:25;0.77;;;0.77;;
12469;SDS011;36499;46.484;13.832;2024-01-06T06:15:51;0.70;;;0.70;;
12469;SDS011;36499;46.484;13.832;2024-01-06T06:18:18;1.13;;;0.90;;
12469;SDS011;36499;46.484;13.832;2024-01-06T06:20:45;1.10;;;0.90;;
12469;SDS011;36499;46.484;13.832;2024-01-06T06:23:13;1.07;;;0.80;;
12469;SDS011;36499;46.484;13.832;2024-01-06T06:25:40;1.17;;;1.07;;
12469;SDS011;36499;46.484;13.832;2024-01-06T06:28:07;0.70;;;0.67;;
12469;SDS011;36499;46.484;13.832;2024-01-06T06:30:34;0.90;;;0.80;;
12469;SDS011;36499;46.484;13.832;2024-01-06T06:33:01;0.90;;;0.90;;
12469;SDS011;36499;46.484;13.832;2024-01-06T06:35:28;4.70;;;4.07;;
12469;SDS011;36499;46.484;13.832;2024-01-06T06:37:55;1.50;;;1.40;;
12469;SDS011;36499;46.484;13.832;2024-01-06T06:40:23;3.03;;;1.97;;
12469;SDS011;36499;46.484;13.832;2024-01-06T06:42:50;2.40;;;1.50;;
12469;SDS011;36499;46.484;13.832;2024-01-06T06:45:17;2.63;;;1.60;;
12469;SDS011;36499;46.484;13.832;2024-01-06T06:47:47;0.73;;;0.73;;
12469;SDS011;36499;46.484;13.832;2024-01-06T06:50:14;1.13;;;0.97;;
12469;SDS011;36499;46.484;13.832;2024-01-06T06:52:41;3.37;;;2.10;;
12469;SDS011;36499;46.484;13.832;2024-01-06T06:55:08;4.07;;;3.10;;
12469;SDS011;36499;46.484;13.832;2024-01-06T06:57:36;5.10;;;3.40;;
12469;SDS011;36499;46.484;13.832;2024-01-06T07:00:03;5.10;;;2.33;;
12469;SDS011;36499;46.484;13.832;2024-01-06T07:02:32;1.43;;;1.10;;
12469;SDS011;36499;46.484;13.832;2024-01-06T07:04:59;1.77;;;1.50;;
12469;SDS011;36499;46.484;13.832;2024-01-06T07:07:26;3.63;;;2.40;;
12469;SDS011;36499;46.484;13.832;2024-01-06T07:09:53;2.90;;;1.60;;
12469;SDS011;36499;46.484;13.832;2024-01-06T07:12:19;1.50;;;1.33;;
12469;SDS011;36499;46.484;13.832;2024-01-06T07:14:48;1.40;;;1.30;;
12469;SDS011;36499;46.484;13.832;2024-01-06T07:17:14;4.43;;;1.53;;
12469;SDS011;36499;46.484;13.832;2024-01-06T07:19:42;2.60;;;1.77;;
12469;SDS011;36499;46.484;13.832;2024-01-06T07:22:09;4.67;;;2.40;;
12469;SDS011;36499;46.484;13.832;2024-01-06T07:24:35;4.00;;;2.70;;
12469;SDS011;36499;46.484;13.832;2024-01-06T07:27:02;5.60;;;3.23;;
12469;SDS011;36499;46.484;13.832;2024-01-06T07:29:29;6.27;;;3.93;;
12469;SDS011;36499;46.484;13.832;2024-01-06T07:31:58;4.97;;;2.97;;
12469;SDS011;36499;46.484;13.832;2024-01-06T07:34:24;2.47;;;2.20;;
12469;SDS011;36499;46.484;13.832;2024-01-06T07:36:51;3.07;;;2.27;;
12469;SDS011;36499;46.484;13.832;2024-01-06T07:39:18;2.83;;;2.20;;
12469;SDS011;36499;46.484;13.832;2024-01-06T07:41:45;2.43;;;2.00;;
12469;SDS011;36499;46.484;13.832;2024-01-06T07:44:12;4.37;;;2.90;;
12469;SDS011;36499;46.484;13.832;2024-01-06T07:49:33;2.03;;;1.83;;
12469;SDS011;36499;46.484;13.832;2024-01-06T07:52:00;2.33;;;1.70;;
12469;SDS011;36499;46.484;13.832;2024-01-06T07:54:27;3.40;;;1.97;;
12469;SDS011;36499;46.484;13.832;2024-01-06T07:56:54;2.83;;;2.10;;
12469;SDS011;36499;46.484;13.832;2024-01-06T07:59:21;2.67;;;2.17;;
12469;SDS011;36499;46.484;13.832;2024-01-06T08:01:49;2.27;;;2.00;;
12469;SDS011;36499;46.484;13.832;2024-01-06T08:04:17;3.57;;;2.60;;
12469;SDS011;36499;46.484;13.832;2024-01-06T08:06:44;4.70;;;2.70;;
12469;SDS011;36499;46.484;13.832;2024-01-06T08:09:13;2.83;;;2.37;;
12469;SDS011;36499;46.484;13.832;2024-01-06T08:11:40;3.30;;;2.47;;
12469;SDS011;36499;46.484;13.832;2024-01-06T08:14:08;3.80;;;2.90;;
12469;SDS011;36499;46.484;13.832;2024-01-06T08:16:36;2.90;;;1.90;;
12469;SDS011;36499;46.484;13.832;2024-01-06T08:19:02;5.03;;;3.37;;
12469;SDS011;36499;46.484;13.832;2024-01-06T08:21:31;4.87;;;3.50;;
12469;SDS011;36499;46.484;13.832;2024-01-06T08:23:59;5.30;;;3.80;;
12469;SDS011;36499;46.484;13.832;2024-01-06T08:26:26;6.23;;;3.63;;
12469;SDS011;36499;46.484;13.832;2024-01-06T08:28:53;4.47;;;3.23;;
12469;SDS011;36499;46.484;13.832;2024-01-06T08:31:19;4.23;;;2.90;;
12469;SDS011;36499;46.484;13.832;2024-01-06T08:33:48;5.30;;;3.30;;
12469;SDS011;36499;46.484;13.832;2024-01-06T08:36:14;4.70;;;3.40;;
12469;SDS011;36499;46.484;13.832;2024-01-06T08:38:43;6.37;;;3.00;;
12469;SDS011;36499;46.484;13.832;2024-01-06T08:41:10;4.27;;;2.97;;
12469;SDS011;36499;46.484;13.832;2024-01-06T08:43:36;5.00;;;3.10;;
12469;SDS011;36499;46.484;13.832;2024-01-06T08:46:03;6.23;;;3.20;;
12469;SDS011;36499;46.484;13.832;2024-01-06T08:48:31;4.50;;;2.60;;
12469;SDS011;36499;46.484;13.832;2024-01-06T08:50:57;2.90;;;2.00;;
12469;SDS011;36499;46.484;13.832;2024-01-06T08:53:24;5.60;;;2.30;;
12469;SDS011;36499;46.484;13.832;2024-01-06T08:55:53;2.20;;;1.87;;
12469;SDS011;36499;46.484;13.832;2024-01-06T08:58:20;2.20;;;1.83;;
12469;SDS011;36499;46.484;13.832;2024-01-06T09:00:47;2.17;;;1.60;;
12469;SDS011;36499;46.484;13.832;2024-01-06T09:03:14;3.80;;;1.87;;
12469;SDS011;36499;46.484;13.832;2024-01-06T09:05:41;2.50;;;1.80;;
12469;SDS011;36499;46.484;13.832;2024-01-06T09:08:08;2.53;;;1.97;;
12469;SDS011;36499;46.484;13.832;2024-01-06T09:10:35;4.27;;;1.97;;
12469;SDS011;36499;46.484;13.832;2024-01-06T09:13:03;2.53;;;1.83;;
12469;SDS011;36499;46.484;13.832;2024-01-06T09:15:30;1.77;;;1.60;;
12469;SDS011;36499;46.484;13.832;2024-01-06T09:17:57;5.90;;;1.50;;
12469;SDS011;36499;46.484;13.832;2024-01-06T09:20:24;1.90;;;1.50;;
12469;SDS011;36499;46.484;13.832;2024-01-06T09:22:52;1.97;;;1.47;;
12469;SDS011;36499;46.484;13.832;2024-01-06T09:25:19;2.43;;;1.63;;
12469;SDS011;36499;46.484;13.832;2024-01-06T09:27:48;1.63;;;1.50;;
12469;SDS011;36499;46.484;13.832;2024-01-06T09:30:17;1.83;;;1.43;;
12469;SDS011;36499;46.484;13.832;2024-01-06T09:32:44;1.77;;;1.40;;
12469;SDS011;36499;46.484;13.832;2024-01-06T09:35:11;2.23;;;1.60;;
12469;SDS011;36499;46.484;13.832;2024-01-06T09:37:38;3.27;;;1.80;;
12469;SDS011;36499;46.484;13.832;2024-01-06T09:40:06;2.10;;;1.30;;
12469;SDS011;36499;46.484;13.832;2024-01-06T09:42:37;9.07;;;2.50;;
12469;SDS011;36499;46.484;13.832;2024-01-06T09:45:05;4.87;;;2.60;;
12469;SDS011;36499;46.484;13.832;2024-01-06T09:47:34;2.50;;;1.90;;
12469;SDS011;36499;46.484;13.832;2024-01-06T09:50:03;2.30;;;1.60;;
12469;SDS011;36499;46.484;13.832;2024-01-06T09:52:35;2.53;;;1.50;;
12469;SDS011;36499;46.484;13.832;2024-01-06T09:55:07;2.03;;;1.50;;
12469;SDS011;36499;46.484;13.832;2024-01-06T09:57:36;1.67;;;1.43;;
12469;SDS011;36499;46.484;13.832;2024-01-06T10:00:04;2.10;;;1.50;;
12469;SDS011;36499;46.484;13.832;2024-01-06T10:02:34;3.23;;;1.67;;
12469;SDS011;36499;46.484;13.832;2024-01-06T10:05:01;2.33;;;1.47;;
12469;SDS011;36499;46.484;13.832;2024-01-06T10:07:28;1.80;;;1.60;;
12469;SDS011;36499;46.484;13.832;2024-01-06T10:09:55;1.47;;;1.37;;
12469;SDS011;36499;46.484;13.832;2024-01-06T10:12:23;2.33;;;1.50;;
12469;SDS011;36499;46.484;13.832;2024-01-06T10:14:50;1.63;;;1.50;;
12469;SDS011;36499;46.484;13.832;2024-01-06T10:17:16;2.13;;;1.30;;
12469;SDS011;36499;46.484;13.832;2024-01-06T10:19:46;1.60;;;1.40;;
12469;SDS011;36499;46.484;13.832;2024-01-06T10:22:14;1.83;;;1.40;;
12469;SDS011;36499;46.484;13.832;2024-01-06T10:24:41;2.13;;;1.53;;
12469;SDS011;36499;46.484;13.832;2024-01-06T10:27:08;4.07;;;1.70;;
12469;SDS011;36499;46.484;13.832;2024-01-06T10:29:35;3.17;;;1.50;;
12469;SDS011;36499;46.484;13.832;2024-01-06T10:32:02;2.77;;;1.87;;
12469;SDS011;36499;46.484;13.832;2024-01-06T10:34:31;2.40;;;1.83;;
12469;SDS011;36499;46.484;13.832;2024-01-06T10:36:59;2.27;;;1.80;;
12469;SDS011;36499;46.484;13.832;2024-01-06T10:39:26;2.00;;;1.70;;
12469;SDS011;36499;46.484;13.832;2024-01-06T10:41:54;3.43;;;1.70;;
12469;SDS011;36499;46.484;13.832;2024-01-06T10:44:23;2.23;;;1.60;;
12469;SDS011;36499;46.484;13.832;2024-01-06T10:46:50;2.30;;;1.80;;
12469;SDS011;36499;46.484;13.832;2024-01-06T10:49:19;2.77;;;1.90;;
12469;SDS011;36499;46.484;13.832;2024-01-06T10:51:48;1.97;;;1.40;;
12469;SDS011;36499;46.484;13.832;2024-01-06T10:54:17;2.70;;;1.80;;
12469;SDS011;36499;46.484;13.832;2024-01-06T10:56:45;2.33;;;1.50;;
12469;SDS011;36499;46.484;13.832;2024-01-06T10:59:13;1.80;;;1.60;;
12469;SDS011;36499;46.484;13.832;2024-01-06T11:01:41;1.73;;;1.43;;
12469;SDS011;36499;46.484;13.832;2024-01-06T11:04:10;2.53;;;1.73;;
12469;SDS011;36499;46.484;13.832;2024-01-06T11:06:39;1.67;;;1.33;;
12469;SDS011;36499;46.484;13.832;2024-01-06T11:09:07;2.60;;;1.60;;
12469;SDS011;36499;46.484;13.832;2024-01-06T11:11:41;2.90;;;1.90;;
12469;SDS011;36499;46.484;13.832;2024-01-06T11:14:18;2.57;;;2.03;;
12469;SDS011;36499;46.484;13.832;2024-01-06T11:16:46;3.33;;;2.10;;
12469;SDS011;36499;46.484;13.832;2024-01-06T11:22:25;3.70;;;2.50;;
12469;SDS011;36499;46.484;13.832;2024-01-06T11:24:55;3.77;;;2.43;;
12469;SDS011;36499;46.484;13.832;2024-01-06T11:27:24;5.83;;;2.73;;
12469;SDS011;36499;46.484;13.832;2024-01-06T11:29:53;3.47;;;2.80;;
12469;SDS011;36499;46.484;13.832;2024-01-06T11:32:25;4.33;;;2.60;;
12469;SDS011;36499;46.484;13.832;2024-01-06T11:34:53;3.57;;;2.90;;
12469;SDS011;36499;46.484;13.832;2024-01-06T11:37:25;4.63;;;2.63;;
12469;SDS011;36499;46.484;13.832;2024-01-06T11:40:01;3.63;;;2.37;;
12469;SDS011;36499;46.484;13.832;2024-01-06T11:42:32;2.33;;;1.80;;
12469;SDS011;36499;46.484;13.832;2024-01-06T11:45:04;5.63;;;3.30;;
12469;SDS011;36499;46.484;13.832;2024-01-06T11:47:32;2.47;;;2.07;;
12469;SDS011;36499;46.484;13.832;2024-01-06T11:49:59;6.90;;;4.17;;
12469;SDS011;36499;46.484;13.832;2024-01-06T11:52:29;1.90;;;1.60;;
12469;SDS011;36499;46.484;13.832;2024-01-06T11:54:57;2.80;;;1.50;;
12469;SDS011;36499;46.484;13.832;2024-01-06T11:57:25;5.80;;;3.80;;
12469;SDS011;36499;46.484;13.832;2024-01-06T11:59:54;3.03;;;2.17;;
12469;SDS011;36499;46.484;13.832;2024-01-06T12:02:21;4.00;;;2.83;;
12469;SDS011;36499;46.484;13.832;2024-01-06T12:04:48;6.90;;;4.70;;
12469;SDS011;36499;46.484;13.832;2024-01-06T12:07:16;8.77;;;5.30;;
12469;SDS011;36499;46.484;13.832;2024-01-06T12:09:43;8.00;;;5.57;;
12469;SDS011;36499;46.484;13.832;2024-01-06T12:12:10;6.17;;;4.37;;
12469;SDS011;36499;46.484;13.832;2024-01-06T12:14:39;3.80;;;3.23;;
12469;SDS011;36499;46.484;13.832;2024-01-06T12:17:08;5.07;;;3.30;;
12469;SDS011;36499;46.484;13.832;2024-01-06T12:19:35;6.83;;;4.63;;
12469;SDS011;36499;46.484;13.832;2024-01-06T12:22:03;3.13;;;2.37;;
12469;SDS011;36499;46.484;13.832;2024-01-06T12:24:30;3.60;;;2.77;;
12469;SDS011;36499;46.484;13.832;2024-01-06T12:26:57;8.43;;;5.57;;
12469;SDS011;36499;46.484;13.832;2024-01-06T12:29:26;5.00;;;3.60;;
12469;SDS011;36499;46.484;13.832;2024-01-06T12:31:54;2.30;;;1.87;;
12469;SDS011;36499;46.484;13.832;2024-01-06T12:34:22;1.10;;;1.00;;
12469;SDS011;36499;46.484;13.832;2024-01-06T12:36:50;2.73;;;1.77;;
12469;SDS011;36499;46.484;13.832;2024-01-06T12:39:19;1.20;;;1.10;;
12469;SDS011;36499;46.484;13.832;2024-01-06T12:41:46;1.10;;;1.00;;
12469;SDS011;36499;46.484;13.832;2024-01-06T12:44:13;1.40;;;1.10;;
12469;SDS011;36499;46.484;13.832;2024-01-06T12:46:39;1.43;;;1.03;;
12469;SDS011;36499;46.484;13.832;2024-01-06T12:49:06;1.83;;;1.47;;
12469;SDS011;36499;46.484;13.832;2024-01-06T12:51:35;2.83;;;1.90;;
12469;SDS011;36499;46.484;13.832;2024-01-06T12:54:02;1.93;;;1.70;;
12469;SDS011;36499;46.484;13.832;2024-01-06T12:56:29;1.60;;;1.37;;
12469;SDS011;36499;46.484;13.832;2024-01-06T12:58:56;2.87;;;1.70;;
12469;SDS011;36499;46.484;13.832;2024-01-06T13:01:23;2.73;;;1.87;;
12469;SDS011;36499;46.484;13.832;2024-01-06T13:03:49;2.10;;;1.70;;
12469;SDS011;36499;46.484;13.832;2024-01-06T13:06:18;2.03;;;1.33;;
12469;SDS011;36499;46.484;13.832;2024-01-06T13:08:46;1.80;;;1.30;;
12469;SDS011;36499;46.484;13.832;2024-01-06T13:11:14;2.97;;;1.23;;
12469;SDS011;36499;46.484;13.832;2024-01-06T13:13:41;1.60;;;1.13;;
12469;SDS011;36499;46.484;13.832;2024-01-06T13:16:08;2.30;;;1.43;;
12469;SDS011;36499;46.484;13.832;2024-01-06T13:18:34;11.87;;;5.57;;
12469;SDS011;36499;46.484;13.832;2024-01-06T13:21:01;32.10;;;14.83;;
12469;SDS011;36499;46.484;13.832;2024-01-06T13:23:28;31.87;;;14.43;;
12469;SDS011;36499;46.484;13.832;2024-01-06T13:25:56;14.33;;;7.33;;
12469;SDS011;36499;46.484;13.832;2024-01-06T13:28:23;12.33;;;5.60;;
12469;SDS011;36499;46.484;13.832;2024-01-06T13:30:50;3.03;;;1.50;;
12469;SDS011;36499;46.484;13.832;2024-01-06T13:33:18;9.47;;;4.53;;
12469;SDS011;36499;46.484;13.832;2024-01-06T13:35:45;7.23;;;3.33;;
12469;SDS011;36499;46.484;13.832;2024-01-06T13:38:12;10.23;;;5.97;;
12469;SDS011;36499;46.484;13.832;2024-01-06T13:40:39;21.53;;;9.93;;
12469;SDS011;36499;46.484;13.832;2024-01-06T13:43:07;22.90;;;11.93;;
12469;SDS011;36499;46.484;13.832;2024-01-06T13:45:40;24.90;;;13.90;;
12469;SDS011;36499;46.484;13.832;2024-01-06T13:48:08;18.37;;;10.60;;
12469;SDS011;36499;46.484;13.832;2024-01-06T13:50:35;13.63;;;7.53;;
12469;SDS011;36499;46.484;13.832;2024-01-06T13:53:02;15.37;;;9.73;;
12469;SDS011;36499;46.484;13.832;2024-01-06T13:55:29;15.30;;;10.27;;
12469;SDS011;36499;46.484;13.832;2024-01-06T13:57:56;10.47;;;6.67;;
12469;SDS011;36499;46.484;13.832;2024-01-06T14:00:25;10.23;;;6.60;;
12469;SDS011;36499;46.484;13.832;2024-01-06T14:02:52;9.83;;;5.73;;
12469;SDS011;36499;46.484;13.832;2024-01-06T14:05:19;7.10;;;4.60;;
12469;SDS011;36499;46.484;13.832;2024-01-06T14:07:46;6.90;;;3.70;;
12469;SDS011;36499;46.484;13.832;2024-01-06T14:10:15;5.20;;;2.87;;
12469;SDS011;36499;46.484;13.832;2024-01-06T14:12:42;3.53;;;2.80;;
12469;SDS011;36499;46.484;13.832;2024-01-06T14:15:09;2.53;;;1.97;;
12469;SDS011;36499;46.484;13.832;2024-01-06T14:17:37;3.40;;;2.40;;
12469;SDS011;36499;46.484;13.832;2024-01-06T14:20:06;3.73;;;2.50;;
12469;SDS011;36499;46.484;13.832;2024-01-06T14:22:34;3.50;;;2.80;;
12469;SDS011;36499;46.484;13.832;2024-01-06T14:25:02;3.27;;;2.57;;
12469;SDS011;36499;46.484;13.832;2024-01-06T14:27:29;2.90;;;2.30;;
12469;SDS011;36499;46.484;13.832;2024-01-06T14:29:56;3.10;;;2.70;;
12469;SDS011;36499;46.484;13.832;2024-01-06T14:32:23;2.70;;;2.03;;
12469;SDS011;36499;46.484;13.832;2024-01-06T14:34:51;3.03;;;2.40;;
12469;SDS011;36499;46.484;13.832;2024-01-06T14:37:18;6.50;;;3.67;;
12469;SDS011;36499;46.484;13.832;2024-01-06T14:39:46;6.30;;;4.33;;
12469;SDS011;36499;46.484;13.832;2024-01-06T14:42:13;7.63;;;5.30;;